sensor_id;sensor_type;location;lat;lon;timestamp;temperature;humidity
76168;DHT22;64927;48.214;16.378;2022-11-20T00:01:17;4.20;60.60
76168;DHT22;64927;48.214;16.378;2022-11-20T00:03:43;4.30;60.30
76168;DHT22;64927;48.214;16.378;2022-11-20T00:06:14;4.20;59.80
76168;DHT22;64927;48.214;16.378;2022-11-20T00:08:41;4.10;60.60
76168;DHT22;64927;48.214;16.378;2022-11-20T00:11:09;4.20;60.40
76168;DHT22;64927;48.214;16.378;2022-11-20T00:13:38;4.20;60.20
76168;DHT22;64927;48.214;16.378;2022-11-20T00:16:05;4.20;60.70
76168;DHT22;64927;48.214;16.378;2022-11-20T00:18:34;4.30;59.60
76168;DHT22;64927;48.214;16.378;2022-11-20T00:21:12;4.30;60.30
76168;DHT22;64927;48.214;16.378;2022-11-20T00:23:41;4.40;60.00
76168;DHT22;64927;48.214;16.378;2022-11-20T00:26:09;4.40;59.40
76168;DHT22;64927;48.214;16.378;2022-11-20T00:28:37;4.30;59.60
76168;DHT22;64927;48.214;16.378;2022-11-20T00:31:12;4.20;60.40
76168;DHT22;64927;48.214;16.378;2022-11-20T00:33:40;4.20;60.20
76168;DHT22;64927;48.214;16.378;2022-11-20T00:36:13;4.20;60.40
76168;DHT22;64927;48.214;16.378;2022-11-20T00:38:40;4.10;60.80
76168;DHT22;64927;48.214;16.378;2022-11-20T00:41:07;4.30;60.20
76168;DHT22;64927;48.214;16.378;2022-11-20T00:43:34;4.40;61.10
76168;DHT22;64927;48.214;16.378;2022-11-20T00:46:02;4.50;60.00
76168;DHT22;64927;48.214;16.378;2022-11-20T00:48:28;4.50;59.50
76168;DHT22;64927;48.214;16.378;2022-11-20T00:50:54;4.50;59.80
76168;DHT22;64927;48.214;16.378;2022-11-20T00:53:20;4.20;59.10
76168;DHT22;64927;48.214;16.378;2022-11-20T00:56:00;4.00;59.90
76168;DHT22;64927;48.214;16.378;2022-11-20T00:58:33;3.80;61.10
76168;DHT22;64927;48.214;16.378;2022-11-20T01:01:16;3.90;61.50
76168;DHT22;64927;48.214;16.378;2022-11-20T01:03:48;3.90;61.50
76168;DHT22;64927;48.214;16.378;2022-11-20T01:06:20;3.90;61.60
76168;DHT22;64927;48.214;16.378;2022-11-20T01:08:50;3.80;61.70
76168;DHT22;64927;48.214;16.378;2022-11-20T01:11:22;3.90;62.30
76168;DHT22;64927;48.214;16.378;2022-11-20T01:13:50;4.10;61.70
76168;DHT22;64927;48.214;16.378;2022-11-20T01:16:18;4.20;61.10
76168;DHT22;64927;48.214;16.378;2022-11-20T01:18:46;4.20;60.10
76168;DHT22;64927;48.214;16.378;2022-11-20T01:21:18;4.30;60.10
76168;DHT22;64927;48.214;16.378;2022-11-20T01:23:45;4.10;61.10
76168;DHT22;64927;48.214;16.378;2022-11-20T01:26:13;3.90;61.60
76168;DHT22;64927;48.214;16.378;2022-11-20T01:28:42;4.00;62.30
76168;DHT22;64927;48.214;16.378;2022-11-20T01:31:23;4.10;62.10
76168;DHT22;64927;48.214;16.378;2022-11-20T01:33:52;4.10;61.40
76168;DHT22;64927;48.214;16.378;2022-11-20T01:36:19;4.20;61.80
76168;DHT22;64927;48.214;16.378;2022-11-20T01:38:45;4.20;61.60
76168;DHT22;64927;48.214;16.378;2022-11-20T01:41:14;4.20;61.70
76168;DHT22;64927;48.214;16.378;2022-11-20T01:44:01;4.20;61.90
76168;DHT22;64927;48.214;16.378;2022-11-20T01:46:27;4.20;62.40
76168;DHT22;64927;48.214;16.378;2022-11-20T01:49:02;4.30;62.50
76168;DHT22;64927;48.214;16.378;2022-11-20T01:51:42;4.30;62.20
76168;DHT22;64927;48.214;16.378;2022-11-20T01:54:18;4.30;62.70
76168;DHT22;64927;48.214;16.378;2022-11-20T01:56:48;4.30;62.90
76168;DHT22;64927;48.214;16.378;2022-11-20T01:59:18;4.10;63.40
76168;DHT22;64927;48.214;16.378;2022-11-20T02:01:44;3.90;62.80
76168;DHT22;64927;48.214;16.378;2022-11-20T02:04:10;4.00;63.20
76168;DHT22;64927;48.214;16.378;2022-11-20T02:06:47;4.00;62.80
76168;DHT22;64927;48.214;16.378;2022-11-20T02:09:14;4.00;63.10
76168;DHT22;64927;48.214;16.378;2022-11-20T02:11:40;4.00;62.70
76168;DHT22;64927;48.214;16.378;2022-11-20T02:14:06;4.10;62.80
76168;DHT22;64927;48.214;16.378;2022-11-20T02:16:37;4.20;62.50
76168;DHT22;64927;48.214;16.378;2022-11-20T02:19:08;4.30;62.50
76168;DHT22;64927;48.214;16.378;2022-11-20T02:21:43;4.30;63.10
76168;DHT22;64927;48.214;16.378;2022-11-20T02:24:21;4.30;63.20
76168;DHT22;64927;48.214;16.378;2022-11-20T02:29:23;4.40;63.00
76168;DHT22;64927;48.214;16.378;2022-11-20T02:31:53;4.40;62.90
76168;DHT22;64927;48.214;16.378;2022-11-20T02:34:20;4.40;63.50
76168;DHT22;64927;48.214;16.378;2022-11-20T02:36:46;4.40;63.00
76168;DHT22;64927;48.214;16.378;2022-11-20T02:39:15;4.40;63.10
76168;DHT22;64927;48.214;16.378;2022-11-20T02:41:43;4.50;62.90
76168;DHT22;64927;48.214;16.378;2022-11-20T02:44:09;4.60;63.10
76168;DHT22;64927;48.214;16.378;2022-11-20T02:46:37;4.70;62.80
76168;DHT22;64927;48.214;16.378;2022-11-20T02:49:05;4.70;62.00
76168;DHT22;64927;48.214;16.378;2022-11-20T02:51:31;4.70;62.30
76168;DHT22;64927;48.214;16.378;2022-11-20T02:53:57;4.80;62.00
76168;DHT22;64927;48.214;16.378;2022-11-20T02:56:23;4.80;61.40
76168;DHT22;64927;48.214;16.378;2022-11-20T02:58:49;4.80;61.50
76168;DHT22;64927;48.214;16.378;2022-11-20T03:01:15;4.90;61.60
76168;DHT22;64927;48.214;16.378;2022-11-20T03:03:40;4.90;61.60
76168;DHT22;64927;48.214;16.378;2022-11-20T03:06:09;5.00;61.80
76168;DHT22;64927;48.214;16.378;2022-11-20T03:08:35;5.00;61.60
76168;DHT22;64927;48.214;16.378;2022-11-20T03:11:07;5.00;61.50
76168;DHT22;64927;48.214;16.378;2022-11-20T03:13:34;5.00;61.70
76168;DHT22;64927;48.214;16.378;2022-11-20T03:16:06;4.90;61.40
76168;DHT22;64927;48.214;16.378;2022-11-20T03:18:31;4.90;61.50
76168;DHT22;64927;48.214;16.378;2022-11-20T03:20:58;4.80;61.90
76168;DHT22;64927;48.214;16.378;2022-11-20T03:23:29;4.70;62.10
76168;DHT22;64927;48.214;16.378;2022-11-20T03:25:55;4.60;62.60
76168;DHT22;64927;48.214;16.378;2022-11-20T03:28:21;4.60;62.90
76168;DHT22;64927;48.214;16.378;2022-11-20T03:30:46;4.70;63.30
76168;DHT22;64927;48.214;16.378;2022-11-20T03:33:12;4.80;63.00
76168;DHT22;64927;48.214;16.378;2022-11-20T03:35:37;4.90;62.80
76168;DHT22;64927;48.214;16.378;2022-11-20T03:38:05;4.90;63.40
76168;DHT22;64927;48.214;16.378;2022-11-20T03:40:31;4.90;63.00
76168;DHT22;64927;48.214;16.378;2022-11-20T03:42:58;4.90;63.50
76168;DHT22;64927;48.214;16.378;2022-11-20T03:45:24;4.70;63.60
76168;DHT22;64927;48.214;16.378;2022-11-20T03:47:50;4.70;64.60
76168;DHT22;64927;48.214;16.378;2022-11-20T03:50:15;4.60;64.80
76168;DHT22;64927;48.214;16.378;2022-11-20T03:52:41;4.70;64.50
76168;DHT22;64927;48.214;16.378;2022-11-20T03:55:07;4.80;64.60
76168;DHT22;64927;48.214;16.378;2022-11-20T03:57:33;4.80;62.80
76168;DHT22;64927;48.214;16.378;2022-11-20T03:59:59;4.70;62.80
76168;DHT22;64927;48.214;16.378;2022-11-20T04:02:24;4.70;63.40
76168;DHT22;64927;48.214;16.378;2022-11-20T04:04:50;4.70;63.50
76168;DHT22;64927;48.214;16.378;2022-11-20T04:07:18;4.80;63.70
76168;DHT22;64927;48.214;16.378;2022-11-20T04:09:43;4.80;63.60
76168;DHT22;64927;48.214;16.378;2022-11-20T04:12:09;4.80;63.40
76168;DHT22;64927;48.214;16.378;2022-11-20T04:14:37;4.90;63.50
76168;DHT22;64927;48.214;16.378;2022-11-20T04:17:03;4.90;62.70
76168;DHT22;64927;48.214;16.378;2022-11-20T04:19:29;5.00;63.40
76168;DHT22;64927;48.214;16.378;2022-11-20T04:21:55;5.00;63.20
76168;DHT22;64927;48.214;16.378;2022-11-20T04:24:20;5.00;63.10
76168;DHT22;64927;48.214;16.378;2022-11-20T04:26:48;4.80;63.50
76168;DHT22;64927;48.214;16.378;2022-11-20T04:29:14;4.70;63.80
76168;DHT22;64927;48.214;16.378;2022-11-20T04:31:39;4.80;63.80
76168;DHT22;64927;48.214;16.378;2022-11-20T04:34:06;4.90;63.70
76168;DHT22;64927;48.214;16.378;2022-11-20T04:36:32;5.00;63.50
76168;DHT22;64927;48.214;16.378;2022-11-20T04:39:00;4.90;64.30
76168;DHT22;64927;48.214;16.378;2022-11-20T04:41:29;4.80;63.60
76168;DHT22;64927;48.214;16.378;2022-11-20T04:43:57;4.70;63.60
76168;DHT22;64927;48.214;16.378;2022-11-20T04:46:28;4.50;64.00
76168;DHT22;64927;48.214;16.378;2022-11-20T04:48:54;4.50;64.20
76168;DHT22;64927;48.214;16.378;2022-11-20T04:51:20;4.50;63.90
76168;DHT22;64927;48.214;16.378;2022-11-20T04:53:45;4.50;64.50
76168;DHT22;64927;48.214;16.378;2022-11-20T04:56:12;4.40;66.10
76168;DHT22;64927;48.214;16.378;2022-11-20T04:58:41;4.30;67.10
76168;DHT22;64927;48.214;16.378;2022-11-20T05:01:13;4.20;67.00
76168;DHT22;64927;48.214;16.378;2022-11-20T05:03:46;4.10;68.40
76168;DHT22;64927;48.214;16.378;2022-11-20T05:06:16;4.20;68.90
76168;DHT22;64927;48.214;16.378;2022-11-20T05:08:42;4.10;67.90
76168;DHT22;64927;48.214;16.378;2022-11-20T05:11:13;3.90;68.70
76168;DHT22;64927;48.214;16.378;2022-11-20T05:13:40;3.80;69.40
76168;DHT22;64927;48.214;16.378;2022-11-20T05:16:14;3.70;69.40
76168;DHT22;64927;48.214;16.378;2022-11-20T05:18:40;3.70;69.90
76168;DHT22;64927;48.214;16.378;2022-11-20T05:21:09;3.70;70.10
76168;DHT22;64927;48.214;16.378;2022-11-20T05:23:35;3.80;69.60
76168;DHT22;64927;48.214;16.378;2022-11-20T05:26:02;3.60;69.60
76168;DHT22;64927;48.214;16.378;2022-11-20T05:28:29;3.60;69.40
76168;DHT22;64927;48.214;16.378;2022-11-20T05:30:54;3.70;70.30
76168;DHT22;64927;48.214;16.378;2022-11-20T05:33:22;3.60;70.20
76168;DHT22;64927;48.214;16.378;2022-11-20T05:35:50;3.70;69.60
76168;DHT22;64927;48.214;16.378;2022-11-20T05:38:16;3.60;69.50
76168;DHT22;64927;48.214;16.378;2022-11-20T05:40:42;3.80;69.20
76168;DHT22;64927;48.214;16.378;2022-11-20T05:43:07;3.80;68.30
76168;DHT22;64927;48.214;16.378;2022-11-20T05:45:35;3.80;68.10
76168;DHT22;64927;48.214;16.378;2022-11-20T05:48:01;3.80;67.90
76168;DHT22;64927;48.214;16.378;2022-11-20T05:50:27;3.90;67.70
76168;DHT22;64927;48.214;16.378;2022-11-20T05:52:58;3.80;68.20
76168;DHT22;64927;48.214;16.378;2022-11-20T05:55:27;3.80;68.20
76168;DHT22;64927;48.214;16.378;2022-11-20T05:57:54;3.90;68.00
76168;DHT22;64927;48.214;16.378;2022-11-20T06:00:20;3.80;68.10
76168;DHT22;64927;48.214;16.378;2022-11-20T06:02:46;3.80;68.50
76168;DHT22;64927;48.214;16.378;2022-11-20T06:05:11;3.80;68.60
76168;DHT22;64927;48.214;16.378;2022-11-20T06:07:37;3.70;68.90
76168;DHT22;64927;48.214;16.378;2022-11-20T06:10:05;3.70;69.40
76168;DHT22;64927;48.214;16.378;2022-11-20T06:12:34;3.80;68.80
76168;DHT22;64927;48.214;16.378;2022-11-20T06:15:04;3.70;69.60
76168;DHT22;64927;48.214;16.378;2022-11-20T06:17:32;3.80;68.90
76168;DHT22;64927;48.214;16.378;2022-11-20T06:19:58;3.70;68.90
76168;DHT22;64927;48.214;16.378;2022-11-20T06:22:23;3.70;69.40
76168;DHT22;64927;48.214;16.378;2022-11-20T06:24:49;3.70;69.90
76168;DHT22;64927;48.214;16.378;2022-11-20T06:27:17;3.70;69.80
76168;DHT22;64927;48.214;16.378;2022-11-20T06:29:43;3.70;69.90
76168;DHT22;64927;48.214;16.378;2022-11-20T06:32:09;3.60;70.10
76168;DHT22;64927;48.214;16.378;2022-11-20T06:34:37;3.50;70.40
76168;DHT22;64927;48.214;16.378;2022-11-20T06:37:02;3.50;71.00
76168;DHT22;64927;48.214;16.378;2022-11-20T06:39:28;3.60;70.00
76168;DHT22;64927;48.214;16.378;2022-11-20T06:41:54;3.70;70.70
76168;DHT22;64927;48.214;16.378;2022-11-20T06:44:21;3.80;69.80
76168;DHT22;64927;48.214;16.378;2022-11-20T06:46:47;3.80;69.30
76168;DHT22;64927;48.214;16.378;2022-11-20T06:49:15;3.60;70.30
76168;DHT22;64927;48.214;16.378;2022-11-20T06:51:41;3.80;70.50
76168;DHT22;64927;48.214;16.378;2022-11-20T06:54:06;3.80;69.90
76168;DHT22;64927;48.214;16.378;2022-11-20T06:56:32;3.90;69.10
76168;DHT22;64927;48.214;16.378;2022-11-20T06:58:58;3.70;69.10
76168;DHT22;64927;48.214;16.378;2022-11-20T07:01:23;3.60;69.80
76168;DHT22;64927;48.214;16.378;2022-11-20T07:03:49;3.60;70.20
76168;DHT22;64927;48.214;16.378;2022-11-20T07:06:16;3.80;69.40
76168;DHT22;64927;48.214;16.378;2022-11-20T07:08:41;3.90;69.00
76168;DHT22;64927;48.214;16.378;2022-11-20T07:11:07;3.90;68.60
76168;DHT22;64927;48.214;16.378;2022-11-20T07:13:33;3.90;69.50
76168;DHT22;64927;48.214;16.378;2022-11-20T07:16:03;3.90;69.60
76168;DHT22;64927;48.214;16.378;2022-11-20T07:18:29;3.80;68.80
76168;DHT22;64927;48.214;16.378;2022-11-20T07:20:55;3.80;69.10
76168;DHT22;64927;48.214;16.378;2022-11-20T07:23:21;3.90;68.90
76168;DHT22;64927;48.214;16.378;2022-11-20T07:25:47;3.90;68.90
76168;DHT22;64927;48.214;16.378;2022-11-20T07:28:12;4.00;69.40
76168;DHT22;64927;48.214;16.378;2022-11-20T07:30:39;4.00;68.20
76168;DHT22;64927;48.214;16.378;2022-11-20T07:33:05;3.90;69.80
76168;DHT22;64927;48.214;16.378;2022-11-20T07:35:30;3.90;68.90
76168;DHT22;64927;48.214;16.378;2022-11-20T07:37:58;3.80;69.00
76168;DHT22;64927;48.214;16.378;2022-11-20T07:40:26;4.00;69.50
76168;DHT22;64927;48.214;16.378;2022-11-20T07:42:54;4.20;69.00
76168;DHT22;64927;48.214;16.378;2022-11-20T07:45:26;4.30;68.30
76168;DHT22;64927;48.214;16.378;2022-11-20T07:47:51;4.30;68.00
76168;DHT22;64927;48.214;16.378;2022-11-20T07:50:18;4.30;68.10
76168;DHT22;64927;48.214;16.378;2022-11-20T07:52:46;4.30;68.00
76168;DHT22;64927;48.214;16.378;2022-11-20T07:55:13;4.20;68.70
76168;DHT22;64927;48.214;16.378;2022-11-20T07:57:39;4.20;68.30
76168;DHT22;64927;48.214;16.378;2022-11-20T08:00:07;4.10;68.20
76168;DHT22;64927;48.214;16.378;2022-11-20T08:02:37;4.10;69.00
76168;DHT22;64927;48.214;16.378;2022-11-20T08:05:04;4.30;68.80
76168;DHT22;64927;48.214;16.378;2022-11-20T08:07:35;4.20;69.10
76168;DHT22;64927;48.214;16.378;2022-11-20T08:10:02;4.40;68.60
76168;DHT22;64927;48.214;16.378;2022-11-20T08:12:27;4.20;68.80
76168;DHT22;64927;48.214;16.378;2022-11-20T08:15:12;4.20;69.70
76168;DHT22;64927;48.214;16.378;2022-11-20T08:17:40;4.30;69.10
76168;DHT22;64927;48.214;16.378;2022-11-20T08:20:06;4.30;68.60
76168;DHT22;64927;48.214;16.378;2022-11-20T08:22:34;4.20;69.20
76168;DHT22;64927;48.214;16.378;2022-11-20T08:25:00;4.40;68.60
76168;DHT22;64927;48.214;16.378;2022-11-20T08:27:26;4.50;68.60
76168;DHT22;64927;48.214;16.378;2022-11-20T08:29:51;4.60;68.00
76168;DHT22;64927;48.214;16.378;2022-11-20T08:32:17;4.80;67.70
76168;DHT22;64927;48.214;16.378;2022-11-20T08:34:43;4.90;67.40
76168;DHT22;64927;48.214;16.378;2022-11-20T08:37:08;4.80;67.60
76168;DHT22;64927;48.214;16.378;2022-11-20T08:39:36;4.80;67.30
76168;DHT22;64927;48.214;16.378;2022-11-20T08:42:06;4.80;67.70
76168;DHT22;64927;48.214;16.378;2022-11-20T08:44:31;5.00;67.20
76168;DHT22;64927;48.214;16.378;2022-11-20T08:46:57;4.90;68.00
76168;DHT22;64927;48.214;16.378;2022-11-20T08:49:23;4.90;67.50
76168;DHT22;64927;48.214;16.378;2022-11-20T08:51:51;5.20;66.80
76168;DHT22;64927;48.214;16.378;2022-11-20T08:54:19;5.30;66.30
76168;DHT22;64927;48.214;16.378;2022-11-20T08:56:47;5.40;65.30
76168;DHT22;64927;48.214;16.378;2022-11-20T08:59:13;5.20;64.50
76168;DHT22;64927;48.214;16.378;2022-11-20T09:01:41;5.00;65.90
76168;DHT22;64927;48.214;16.378;2022-11-20T09:04:08;5.00;66.10
76168;DHT22;64927;48.214;16.378;2022-11-20T09:06:34;5.00;66.00
76168;DHT22;64927;48.214;16.378;2022-11-20T09:09:00;5.00;66.20
76168;DHT22;64927;48.214;16.378;2022-11-20T09:11:25;5.00;66.90
76168;DHT22;64927;48.214;16.378;2022-11-20T09:13:51;5.20;67.20
76168;DHT22;64927;48.214;16.378;2022-11-20T09:16:17;5.30;66.30
76168;DHT22;64927;48.214;16.378;2022-11-20T09:18:45;5.40;65.90
76168;DHT22;64927;48.214;16.378;2022-11-20T09:21:12;5.50;65.50
76168;DHT22;64927;48.214;16.378;2022-11-20T09:23:39;5.40;65.30
76168;DHT22;64927;48.214;16.378;2022-11-20T09:26:10;5.30;65.30
76168;DHT22;64927;48.214;16.378;2022-11-20T09:28:44;5.10;65.80
76168;DHT22;64927;48.214;16.378;2022-11-20T09:31:24;5.10;66.20
76168;DHT22;64927;48.214;16.378;2022-11-20T09:33:51;4.90;66.80
76168;DHT22;64927;48.214;16.378;2022-11-20T09:36:17;5.00;67.10
76168;DHT22;64927;48.214;16.378;2022-11-20T09:38:47;5.10;67.30
76168;DHT22;64927;48.214;16.378;2022-11-20T09:45:01;4.90;67.40
76168;DHT22;64927;48.214;16.378;2022-11-20T09:47:07;4.90;67.60
76168;DHT22;64927;48.214;16.378;2022-11-20T09:54:56;5.00;67.80
76168;DHT22;64927;48.214;16.378;2022-11-20T09:57:26;5.10;68.10
76168;DHT22;64927;48.214;16.378;2022-11-20T09:59:58;5.30;67.50
76168;DHT22;64927;48.214;16.378;2022-11-20T10:02:30;5.10;67.70
76168;DHT22;64927;48.214;16.378;2022-11-20T10:10:33;5.30;67.00
76168;DHT22;64927;48.214;16.378;2022-11-20T10:13:20;5.40;67.50
76168;DHT22;64927;48.214;16.378;2022-11-20T10:18:42;5.70;67.10
76168;DHT22;64927;48.214;16.378;2022-11-20T10:29:36;6.00;65.30
76168;DHT22;64927;48.214;16.378;2022-11-20T10:32:11;6.00;64.80
76168;DHT22;64927;48.214;16.378;2022-11-20T10:34:53;6.10;65.10
76168;DHT22;64927;48.214;16.378;2022-11-20T10:37:24;5.80;64.90
76168;DHT22;64927;48.214;16.378;2022-11-20T10:39:59;5.90;65.80
76168;DHT22;64927;48.214;16.378;2022-11-20T10:42:37;6.00;65.50
76168;DHT22;64927;48.214;16.378;2022-11-20T10:47:47;6.20;64.90
76168;DHT22;64927;48.214;16.378;2022-11-20T10:50:19;6.40;64.70
76168;DHT22;64927;48.214;16.378;2022-11-20T10:55:47;6.50;63.10
76168;DHT22;64927;48.214;16.378;2022-11-20T10:58:31;6.50;62.90
76168;DHT22;64927;48.214;16.378;2022-11-20T11:01:05;6.50;63.70
76168;DHT22;64927;48.214;16.378;2022-11-20T11:03:31;6.70;63.90
76168;DHT22;64927;48.214;16.378;2022-11-20T11:08:58;6.90;62.60
76168;DHT22;64927;48.214;16.378;2022-11-20T11:11:30;6.90;63.20
76168;DHT22;64927;48.214;16.378;2022-11-20T11:14:08;6.90;62.70
76168;DHT22;64927;48.214;16.378;2022-11-20T11:16:34;7.00;62.80
76168;DHT22;64927;48.214;16.378;2022-11-20T11:19:07;7.00;63.10
76168;DHT22;64927;48.214;16.378;2022-11-20T11:21:53;7.00;63.10
76168;DHT22;64927;48.214;16.378;2022-11-20T11:24:24;7.10;62.80
76168;DHT22;64927;48.214;16.378;2022-11-20T11:27:00;7.10;63.00
76168;DHT22;64927;48.214;16.378;2022-11-20T11:29:34;7.20;62.70
76168;DHT22;64927;48.214;16.378;2022-11-20T11:32:19;7.20;62.50
76168;DHT22;64927;48.214;16.378;2022-11-20T11:35:02;7.20;62.80
76168;DHT22;64927;48.214;16.378;2022-11-20T11:37:33;7.10;62.00
76168;DHT22;64927;48.214;16.378;2022-11-20T11:40:00;7.10;62.60
76168;DHT22;64927;48.214;16.378;2022-11-20T11:42:28;6.90;63.70
76168;DHT22;64927;48.214;16.378;2022-11-20T11:44:58;7.20;63.30
76168;DHT22;64927;48.214;16.378;2022-11-20T11:50:24;7.40;62.60
76168;DHT22;64927;48.214;16.378;2022-11-20T11:53:14;7.40;63.30
76168;DHT22;64927;48.214;16.378;2022-11-20T11:55:54;7.30;62.20
76168;DHT22;64927;48.214;16.378;2022-11-20T12:04:19;7.50;62.90
76168;DHT22;64927;48.214;16.378;2022-11-20T12:06:51;7.60;63.20
76168;DHT22;64927;48.214;16.378;2022-11-20T12:09:20;7.70;62.80
76168;DHT22;64927;48.214;16.378;2022-11-20T12:11:58;7.80;62.20
76168;DHT22;64927;48.214;16.378;2022-11-20T12:14:38;7.70;62.50
76168;DHT22;64927;48.214;16.378;2022-11-20T12:17:07;7.60;62.80
76168;DHT22;64927;48.214;16.378;2022-11-20T12:19:35;7.50;62.50
76168;DHT22;64927;48.214;16.378;2022-11-20T12:30:16;7.00;64.10
76168;DHT22;64927;48.214;16.378;2022-11-20T12:41:15;7.40;64.80
76168;DHT22;64927;48.214;16.378;2022-11-20T12:57:58;7.60;63.50
76168;DHT22;64927;48.214;16.378;2022-11-20T13:00:26;7.70;63.60
76168;DHT22;64927;48.214;16.378;2022-11-20T13:08:03;7.90;63.70
76168;DHT22;64927;48.214;16.378;2022-11-20T13:16:15;8.40;62.30
76168;DHT22;64927;48.214;16.378;2022-11-20T13:18:46;8.50;61.70
76168;DHT22;64927;48.214;16.378;2022-11-20T13:21:16;8.50;61.40
76168;DHT22;64927;48.214;16.378;2022-11-20T13:23:44;8.60;61.50
76168;DHT22;64927;48.214;16.378;2022-11-20T13:26:19;8.60;61.20
76168;DHT22;64927;48.214;16.378;2022-11-20T13:28:47;8.60;61.40
76168;DHT22;64927;48.214;16.378;2022-11-20T13:31:43;8.60;61.20
76168;DHT22;64927;48.214;16.378;2022-11-20T13:34:12;8.60;61.60
76168;DHT22;64927;48.214;16.378;2022-11-20T13:36:56;8.60;61.70
76168;DHT22;64927;48.214;16.378;2022-11-20T13:39:30;8.70;61.40
76168;DHT22;64927;48.214;16.378;2022-11-20T13:42:02;8.70;61.20
76168;DHT22;64927;48.214;16.378;2022-11-20T13:44:47;8.70;61.50
76168;DHT22;64927;48.214;16.378;2022-11-20T13:47:24;8.70;61.50
76168;DHT22;64927;48.214;16.378;2022-11-20T13:49:51;8.70;61.50
76168;DHT22;64927;48.214;16.378;2022-11-20T13:52:28;8.80;61.90
76168;DHT22;64927;48.214;16.378;2022-11-20T13:57:49;9.10;61.50
76168;DHT22;64927;48.214;16.378;2022-11-20T14:00:17;9.10;60.90
76168;DHT22;64927;48.214;16.378;2022-11-20T14:03:09;9.00;60.90
76168;DHT22;64927;48.214;16.378;2022-11-20T14:06:32;9.00;61.10
76168;DHT22;64927;48.214;16.378;2022-11-20T14:08:47;8.90;61.20
76168;DHT22;64927;48.214;16.378;2022-11-20T14:11:36;8.80;61.60
76168;DHT22;64927;48.214;16.378;2022-11-20T14:14:03;8.70;61.80
76168;DHT22;64927;48.214;16.378;2022-11-20T14:16:34;8.60;62.10
76168;DHT22;64927;48.214;16.378;2022-11-20T14:21:49;8.60;62.50
76168;DHT22;64927;48.214;16.378;2022-11-20T14:24:22;8.60;62.60
76168;DHT22;64927;48.214;16.378;2022-11-20T14:26:49;8.60;62.60
76168;DHT22;64927;48.214;16.378;2022-11-20T14:29:23;8.60;62.70
76168;DHT22;64927;48.214;16.378;2022-11-20T14:31:53;8.60;62.70
76168;DHT22;64927;48.214;16.378;2022-11-20T14:34:25;8.60;62.70
76168;DHT22;64927;48.214;16.378;2022-11-20T14:37:00;8.60;62.90
76168;DHT22;64927;48.214;16.378;2022-11-20T14:39:35;8.50;63.00
76168;DHT22;64927;48.214;16.378;2022-11-20T14:42:14;8.50;63.30
76168;DHT22;64927;48.214;16.378;2022-11-20T14:44:43;8.40;63.70
76168;DHT22;64927;48.214;16.378;2022-11-20T14:47:15;8.50;63.80
76168;DHT22;64927;48.214;16.378;2022-11-20T14:49:43;8.50;63.60
76168;DHT22;64927;48.214;16.378;2022-11-20T14:52:18;8.60;63.50
76168;DHT22;64927;48.214;16.378;2022-11-20T14:54:46;8.60;63.50
76168;DHT22;64927;48.214;16.378;2022-11-20T14:57:24;8.50;63.80
76168;DHT22;64927;48.214;16.378;2022-11-20T14:59:50;8.50;63.90
76168;DHT22;64927;48.214;16.378;2022-11-20T15:02:18;8.40;64.10
76168;DHT22;64927;48.214;16.378;2022-11-20T15:05:06;8.40;63.90
76168;DHT22;64927;48.214;16.378;2022-11-20T15:07:40;8.40;64.20
76168;DHT22;64927;48.214;16.378;2022-11-20T15:15:47;8.20;64.90
76168;DHT22;64927;48.214;16.378;2022-11-20T15:18:15;8.10;65.20
76168;DHT22;64927;48.214;16.378;2022-11-20T15:20:42;8.00;65.40
76168;DHT22;64927;48.214;16.378;2022-11-20T15:23:14;8.00;65.40
76168;DHT22;64927;48.214;16.378;2022-11-20T15:25:43;8.00;65.50
76168;DHT22;64927;48.214;16.378;2022-11-20T15:28:28;7.90;65.80
76168;DHT22;64927;48.214;16.378;2022-11-20T15:30:54;7.90;65.70
76168;DHT22;64927;48.214;16.378;2022-11-20T15:33:21;7.90;65.80
76168;DHT22;64927;48.214;16.378;2022-11-20T15:35:48;7.90;66.00
76168;DHT22;64927;48.214;16.378;2022-11-20T15:38:14;7.80;66.20
76168;DHT22;64927;48.214;16.378;2022-11-20T15:40:40;7.90;66.30
76168;DHT22;64927;48.214;16.378;2022-11-20T15:43:06;7.80;66.50
76168;DHT22;64927;48.214;16.378;2022-11-20T15:48:12;7.90;66.80
76168;DHT22;64927;48.214;16.378;2022-11-20T15:53:40;7.90;67.00
76168;DHT22;64927;48.214;16.378;2022-11-20T15:56:11;7.80;67.10
76168;DHT22;64927;48.214;16.378;2022-11-20T15:58:38;7.80;67.10
76168;DHT22;64927;48.214;16.378;2022-11-20T16:01:04;7.80;67.40
76168;DHT22;64927;48.214;16.378;2022-11-20T16:03:30;7.90;67.20
76168;DHT22;64927;48.214;16.378;2022-11-20T16:05:58;7.90;67.40
76168;DHT22;64927;48.214;16.378;2022-11-20T16:08:24;7.80;67.30
76168;DHT22;64927;48.214;16.378;2022-11-20T16:10:50;7.80;67.40
76168;DHT22;64927;48.214;16.378;2022-11-20T16:13:17;7.80;67.30
76168;DHT22;64927;48.214;16.378;2022-11-20T16:16:05;7.80;67.60
76168;DHT22;64927;48.214;16.378;2022-11-20T16:18:34;7.80;67.60
76168;DHT22;64927;48.214;16.378;2022-11-20T16:21:01;7.70;67.70
76168;DHT22;64927;48.214;16.378;2022-11-20T16:23:27;7.80;67.80
76168;DHT22;64927;48.214;16.378;2022-11-20T16:25:53;7.80;68.30
76168;DHT22;64927;48.214;16.378;2022-11-20T16:28:19;7.80;67.80
76168;DHT22;64927;48.214;16.378;2022-11-20T16:30:46;7.80;67.90
76168;DHT22;64927;48.214;16.378;2022-11-20T16:33:16;7.80;67.80
76168;DHT22;64927;48.214;16.378;2022-11-20T16:35:45;7.80;67.80
76168;DHT22;64927;48.214;16.378;2022-11-20T16:38:11;7.70;67.90
76168;DHT22;64927;48.214;16.378;2022-11-20T16:40:37;7.70;68.00
76168;DHT22;64927;48.214;16.378;2022-11-20T16:43:12;7.70;68.90
76168;DHT22;64927;48.214;16.378;2022-11-20T16:45:43;7.80;68.20
76168;DHT22;64927;48.214;16.378;2022-11-20T16:48:14;7.70;68.10
76168;DHT22;64927;48.214;16.378;2022-11-20T16:50:51;7.80;68.30
76168;DHT22;64927;48.214;16.378;2022-11-20T16:53:18;7.70;68.70
76168;DHT22;64927;48.214;16.378;2022-11-20T16:55:44;7.70;68.70
76168;DHT22;64927;48.214;16.378;2022-11-20T16:58:11;7.70;68.90
76168;DHT22;64927;48.214;16.378;2022-11-20T17:00:38;7.70;68.80
76168;DHT22;64927;48.214;16.378;2022-11-20T17:03:05;7.70;68.90
76168;DHT22;64927;48.214;16.378;2022-11-20T17:05:32;7.70;68.90
76168;DHT22;64927;48.214;16.378;2022-11-20T17:08:00;7.60;68.80
76168;DHT22;64927;48.214;16.378;2022-11-20T17:10:31;7.60;69.10
76168;DHT22;64927;48.214;16.378;2022-11-20T17:12:57;7.60;69.20
76168;DHT22;64927;48.214;16.378;2022-11-20T17:15:24;7.60;69.60
76168;DHT22;64927;48.214;16.378;2022-11-20T17:17:52;7.60;69.30
76168;DHT22;64927;48.214;16.378;2022-11-20T17:20:21;7.70;69.30
76168;DHT22;64927;48.214;16.378;2022-11-20T17:22:50;7.70;69.20
76168;DHT22;64927;48.214;16.378;2022-11-20T17:25:18;7.60;69.40
76168;DHT22;64927;48.214;16.378;2022-11-20T17:27:44;7.50;70.00